Data for 04/04/2006

Time Sea-Level Adjusted Pressure Absolute Pressure Temperature Relative Humidity Dew Point   
(mb) (inHg) (mb) (inHg) (C) (F) (%) (C) (F)
00:05 1015 29.97 844 24.92 8.3 47 53 -0.8 30.6
00:10 1015 29.97 844 24.92 8.3 46.9 54 -0.6 31
00:15 1015 29.97 844 24.92 8 46.4 55 -0.5 31
00:20 1015 29.97 844 24.92 7.8 46 55 -0.6 30.9
00:25 1015 29.97 844 24.92 7.7 45.8 55 -0.7 30.7
00:30 1014 29.94 844 24.92 7.7 45.8 55 -0.7 30.7
00:35 1014 29.94 844 24.92 7.7 45.9 55 -0.8 30.6
00:40 1014 29.94 844 24.92 7.6 45.7 55 -0.8 30.6
00:45 1014 29.94 844 24.92 7.6 45.6 55 -0.8 30.5
00:50 1014 29.94 844 24.92 7.5 45.5 55 -0.8 30.5
00:55 1014 29.94 844 24.92 7.5 45.5 55 -0.9 30.4
01:00 1014 29.94 844 24.92 7.5 45.6 55 -0.9 30.4
01:05 1014 29.94 844 24.92 7.7 45.9 54 -0.9 30.3
01:10 1014 29.94 844 24.92 8 46.3 53 -1 30.2
01:15 1014 29.94 844 24.92 8 46.5 53 -0.8 30.5
01:20 1014 29.94 843 24.89 8 46.3 54 -0.8 30.6
01:25 1014 29.94 843 24.89 8 46.3 54 -0.7 30.7
01:30 1014 29.94 843 24.89 8 46.5 54 -0.8 30.6
01:35 1014 29.94 843 24.89 7.9 46.2 55 -0.7 30.8
01:40 1014 29.94 843 24.89 7.6 45.7 55 -0.8 30.6
01:45 1014 29.94 843 24.89 7.6 45.6 55 -0.8 30.5
01:50 1014 29.94 843 24.89 7.7 45.8 55 -0.7 30.7
01:55 1014 29.94 843 24.89 7.5 45.5 56 -0.6 31
02:00 1014 29.94 843 24.89 7.5 45.5 55 -0.9 30.4
02:05 1014 29.94 843 24.89 7.7 45.8 55 -0.8 30.6
02:10 1014 29.94 843 24.89 7.8 46 55 -0.7 30.8
02:15 1014 29.94 843 24.89 7.6 45.7 56 -0.6 31
02:20 1014 29.94 843 24.89 7.6 45.7 55 -0.8 30.6
02:25 1014 29.94 843 24.89 7.6 45.7 55 -0.8 30.6
02:30 1014 29.94 843 24.89 7.7 45.9 55 -0.7 30.7
02:35 1014 29.94 843 24.89 7.7 45.8 56 -0.6 31
02:40 1014 29.94 843 24.89 7.6 45.7 55 -0.8 30.6
02:45 1014 29.94 843 24.89 7.7 45.8 56 -0.5 31
02:50 1014 29.94 843 24.89 7.5 45.4 57 -0.6 30.9
02:55 1014 29.94 843 24.89 7.4 45.4 57 -0.4 31.2
03:00 1014 29.94 843 24.89 7.3 45.2 56 -0.8 30.6
03:05 1014 29.94 843 24.89 7.3 45.1 58 -0.5 31.1
03:10 1014 29.94 843 24.89 7.3 45.1 55 -1.1 30
03:15 1014 29.94 843 24.89 7.6 45.6 55 -0.8 30.5
03:20 1014 29.94 843 24.89 7.6 45.7 55 -0.7 30.7
03:25 1014 29.94 843 24.89 7.8 46 54 -0.9 30.4
03:30 1014 29.94 843 24.89 7.8 46.1 54 -0.8 30.6
03:35 1014 29.94 843 24.89 8 46.3 53 -0.9 30.3
03:40 1014 29.94 843 24.89 8 46.5 53 -0.8 30.5
03:45 1013 29.91 843 24.89 7.9 46.3 55 -0.6 31
03:50 1013 29.91 843 24.89 7.9 46.2 52 -1.2 29.8
03:55 1013 29.91 843 24.89 8.4 47 51 -1.2 29.8
04:00 1013 29.91 842 24.86 8.7 47.7 51 -0.9 30.4
04:05 1013 29.91 842 24.86 8.3 47 53 -0.7 30.7
04:10 1013 29.91 842 24.86 8.2 46.7 52 -1 30.2
04:15 1013 29.91 842 24.86 8.3 46.9 52 -0.9 30.4
04:20 1013 29.91 842 24.86 8.2 46.8 53 -0.8 30.6
04:25 1013 29.91 842 24.86 8.1 46.5 54 -0.8 30.6
04:30 1013 29.91 842 24.86 7.9 46.3 54 -0.8 30.5
04:35 1013 29.91 842 24.86 8 46.4 53 -0.8 30.5
04:40 1013 29.91 842 24.86 7.9 46.2 55 -0.5 31
04:45 1013 29.91 842 24.86 7.7 45.9 55 -0.8 30.6
04:50 1013 29.91 842 24.86 7.7 45.8 55 -0.7 30.7
04:55 1013 29.91 842 24.86 7.8 46.1 54 -1 30.2
05:00 1013 29.91 842 24.86 8 46.3 54 -0.6 30.9
05:05 1012 29.88 842 24.86 7.7 45.9 55 -0.7 30.8
05:10 1012 29.88 842 24.86 7.9 46.3 53 -1 30.2
05:15 1012 29.88 841 24.83 8 46.5 54 -0.6 30.9
05:20 1012 29.88 841 24.83 7.6 45.7 55 -0.7 30.7
05:25 1012 29.88 841 24.83 7.7 45.9 55 -0.7 30.7
05:30 1012 29.88 841 24.83 7.6 45.6 56 -0.7 30.7
05:35 1012 29.88 841 24.83 7.5 45.6 56 -0.6 30.9
05:40 1012 29.88 841 24.83 7.4 45.4 57 -0.6 31
05:45 1012 29.88 841 24.83 7.4 45.4 57 -0.6 31
05:50 1012 29.88 841 24.83 7.7 45.8 54 -1 30.2
05:55 1012 29.88 841 24.83 8 46.4 53 -1 30.3
06:00 1012 29.88 841 24.83 8.2 46.7 52 -1 30.1
06:05 1012 29.88 841 24.83 8.3 46.9 54 -0.6 31
06:10 1012 29.88 841 24.83 7.9 46.2 54 -0.7 30.7
06:15 1012 29.88 841 24.83 7.7 45.9 55 -0.7 30.8
06:20 1012 29.88 841 24.83 7.8 46 54 -1 30.1
06:25 1012 29.88 841 24.83 7.9 46.2 55 -0.5 31
06:30 1012 29.88 841 24.83 7.7 45.9 54 -0.9 30.4
06:35 1012 29.88 841 24.83 7.9 46.2 52 -1.3 29.6
06:40 1012 29.88 841 24.83 8 46.4 53 -0.9 30.4
06:45 1012 29.88 841 24.83 7.7 45.9 54 -1.1 30.1
06:50 1012 29.88 841 24.83 7.7 45.9 53 -1.2 29.8
06:55 1012 29.88 841 24.83 8 46.3 51 -1.5 29.2
07:00 1012 29.88 841 24.83 8.3 46.9 51 -1.3 29.6
07:05 1012 29.88 841 24.83 8.3 47 50 -1.5 29.4
07:10 1012 29.88 841 24.83 8.5 47.3 50 -1.4 29.4
07:15 1012 29.88 841 24.83 8.5 47.3 49 -1.5 29.2
07:20 1012 29.88 841 24.83 8.5 47.4 49 -1.5 29.3
07:25 1012 29.88 841 24.83 8.5 47.2 50 -1.4 29.5
07:30 1012 29.88 841 24.83 8.3 47 50 -1.4 29.5
07:35 1012 29.88 841 24.83 8.3 46.9 51 -1.4 29.5
07:40 1012 29.88 841 24.83 8.2 46.7 51 -1.2 29.8
07:45 1012 29.88 841 24.83 8.2 46.7 51 -1.3 29.7
07:50 1012 29.88 841 24.83 8.2 46.8 51 -1.2 29.9
07:55 1012 29.88 841 24.83 8.3 47 51 -1.3 29.7
08:00 1012 29.88 841 24.83 8.4 47.1 51 -1.3 29.7
08:05 1012 29.88 841 24.83 8.3 47 50 -1.4 29.4
08:10 1011 29.85 841 24.83 8.4 47.2 49 -1.6 29.2
08:15 1011 29.85 841 24.83 8.5 47.2 49 -1.5 29.3
08:20 1011 29.85 841 24.83 8.6 47.4 49 -1.4 29.4
08:25 1011 29.85 841 24.83 8.6 47.5 49 -1.6 29.1
08:30 1012 29.88 841 24.83 8.7 47.6 48 -1.6 29.1
08:35 1011 29.85 841 24.83 8.7 47.6 49 -1.4 29.5
08:40 1011 29.85 840 24.81 8.6 47.6 49 -1.5 29.3
08:45 1011 29.85 840 24.81 8.9 48 49 -1.4 29.5
08:50 1011 29.85 840 24.81 8.9 47.9 49 -1.4 29.6
08:55 1011 29.85 840 24.81 9 48.1 49 -1.3 29.7
09:00 1011 29.85 840 24.81 9.2 48.5 47 -1.4 29.4
09:05 1011 29.85 840 24.81 9.5 49 47 -1.3 29.6
09:10 1011 29.85 840 24.81 9.7 49.5 46 -1.2 29.9
09:15 1011 29.85 840 24.81 9.8 49.7 47 -1 30.1
09:20 1011 29.85 840 24.81 9.7 49.5 51 -0 32
09:25 1011 29.85 840 24.81 9.6 49.3 49 -0.6 30.9
09:30 1011 29.85 840 24.81 9.8 49.6 49 -0.4 31.2
09:35 1011 29.85 840 24.81 10 50 45 -1.2 29.8
09:40 1011 29.85 840 24.81 9.8 49.7 46 -1.1 30
09:45 1011 29.85 840 24.81 9.7 49.4 47 -1 30.2
09:50 1011 29.85 840 24.81 9.7 49.5 48 -0.9 30.4
09:55 1011 29.85 840 24.81 9.7 49.4 46 -1.3 29.7
10:00 1011 29.85 840 24.81 9.9 49.7 45 -1.4 29.5
10:05 1011 29.85 840 24.81 10.1 50.2 43 -1.9 28.5
10:10 1011 29.85 840 24.81 10.3 50.5 43 -1.8 28.8
10:15 1011 29.85 840 24.81 10.3 50.6 43 -1.7 29
10:20 1011 29.85 840 24.81 10.5 50.9 42 -1.7 28.9
10:25 1011 29.85 840 24.81 10.5 50.9 43 -1.5 29.2
10:30 1011 29.85 840 24.81 10.5 50.9 45 -0.9 30.5
10:35 1011 29.85 840 24.81 10.4 50.7 48 0 32
10:40 1011 29.85 840 24.81 10.3 50.5 49 0.1 32.2
10:45 1011 29.85 840 24.81 10.4 50.7 46 -0.7 30.8
10:50 1011 29.85 840 24.81 10.6 51.1 44 -1.1 30
10:55 1011 29.85 840 24.81 10.8 51.5 42 -1.4 29.5
11:00 1011 29.85 840 24.81 10.9 51.6 42 -1.4 29.4
11:05 1011 29.85 840 24.81 11 51.8 42 -1.5 29.3
11:10 1011 29.85 840 24.81 11.1 52 41 -1.6 29.1
11:15 1011 29.85 840 24.81 11.1 52 42 -1.4 29.5
11:20 1011 29.85 840 24.81 11.1 52 41 -1.4 29.4
11:25 1011 29.85 840 24.81 11.2 52.1 42 -1.4 29.6
11:30 1011 29.85 840 24.81 11.3 52.3 41 -1.3 29.6
11:35 1011 29.85 840 24.81 11.5 52.8 41 -1.3 29.6
11:40 1011 29.85 840 24.81 11.8 53.2 40 -1.3 29.6
11:45 1011 29.85 840 24.81 12.2 54 40 -1 30.1
11:50 1011 29.85 840 24.81 12.6 54.6 39 -1 30.1
11:55 1011 29.85 840 24.81 12.8 55.1 38 -0.9 30.3
12:00 1011 29.85 840 24.81 13 55.4 38 -0.9 30.4
12:05 1011 29.85 840 24.81 13.1 55.6 38 -1 30.3
12:10 1011 29.85 840 24.81 13.3 55.9 37 -0.9 30.4
12:15 1011 29.85 840 24.81 13.3 55.9 40 0.1 32.3
12:20 1011 29.85 840 24.81 13.1 55.6 42 0.6 33.1
12:25 1011 29.85 840 24.81 12.8 55.1 44 0.9 33.6
12:30 1011 29.85 840 24.81 12.8 55.1 45 1.1 34
12:35 1011 29.85 840 24.81 12.9 55.3 44 0.9 33.6
12:40 1011 29.85 840 24.81 13.1 55.5 43 0.8 33.5
12:45 1011 29.85 840 24.81 13.1 55.5 42 0.7 33.2
12:50 1011 29.85 840 24.81 13.1 55.5 42 0.4 32.8
12:55 1011 29.85 840 24.81 13.4 56.1 40 0.3 32.5
13:00 1011 29.85 840 24.81 13.7 56.7 40 0.4 32.7
13:05 1011 29.85 840 24.81 13.8 56.8 46 2.4 36.2
13:10 1011 29.85 840 24.81 13.5 56.3 46 2.1 35.7
13:15 1011 29.85 840 24.81 13.7 56.7 44 1.7 35.1
13:20 1011 29.85 840 24.81 14.1 57.4 42 1.6 35
13:25 1011 29.85 840 24.81 14 57.3 43 1.8 35.2
13:30 1010 29.83 840 24.81 14.1 57.3 42 1.4 34.5
13:35 1010 29.83 840 24.81 13.7 56.7 42 1.2 34.1
13:40 1010 29.83 840 24.81 13.8 56.9 44 1.7 35.1
13:45 1010 29.83 839 24.78 13.9 56.9 42 1.4 34.5
13:50 1010 29.83 839 24.78 14 57.2 42 1.2 34.2
13:55 1010 29.83 839 24.78 14 57.2 41 1.1 34
14:00 1010 29.83 839 24.78 14.8 58.6 37 0.4 32.8
14:05 1010 29.83 839 24.78 15.3 59.5 37 0.8 33.5
14:10 1010 29.83 839 24.78 15.4 59.8 36 0.5 32.9
14:15 1010 29.83 839 24.78 15.2 59.3 37 0.8 33.4
14:20 1010 29.83 839 24.78 15 58.9 38 0.9 33.6
14:25 1010 29.83 839 24.78 15.3 59.5 38 0.9 33.7
14:30 1010 29.83 839 24.78 15.5 60 36 0.7 33.3
14:35 1010 29.83 839 24.78 15.9 60.7 35 0.6 33.2
14:40 1010 29.83 839 24.78 16 60.9 34 0.4 32.7
14:45 1010 29.83 839 24.78 15.8 60.5 36 0.9 33.6
14:50 1010 29.83 839 24.78 15.9 60.7 35 0.4 32.7
14:55 1010 29.83 839 24.78 15.6 60.1 37 1 33.8
15:00 1010 29.83 839 24.78 15 58.9 36 0.3 32.5
15:05 1010 29.83 839 24.78 14.9 58.8 37 0.4 32.6
15:10 1010 29.83 839 24.78 14.9 58.8 38 0.9 33.7
15:15 1010 29.83 839 24.78 14.8 58.7 36 -0.1 31.9
15:20 1010 29.83 839 24.78 14.8 58.6 38 0.7 33.3
15:25 1010 29.83 839 24.78 14.7 58.5 37 0.4 32.8
15:30 1010 29.83 839 24.78 14.9 58.8 36 0.2 32.3
15:35 1010 29.83 839 24.78 15 59 36 0.1 32.2
15:40 1010 29.83 839 24.78 15.2 59.3 37 0.8 33.4
15:45 1010 29.83 839 24.78 15.2 59.4 37 0.7 33.2
15:50 1010 29.83 839 24.78 15.1 59.2 37 0.8 33.4
15:55 1010 29.83 839 24.78 14.7 58.5 43 2.3 36.1
16:00 1010 29.83 839 24.78 14.4 57.9 43 2 35.7
16:05 1010 29.83 839 24.78 14.6 58.4 42 1.8 35.2
16:10 1010 29.83 839 24.78 14.7 58.5 43 2.3 36.2
16:15 1010 29.83 839 24.78 14.5 58 43 2.2 35.9
16:20 1010 29.83 839 24.78 14.6 58.3 42 2 35.6
16:25 1010 29.83 839 24.78 14.2 57.6 42 1.7 35
16:30 1010 29.83 839 24.78 14.1 57.4 42 1.5 34.7
16:35 1010 29.83 839 24.78 14.6 58.4 39 1 33.9
16:40 1010 29.83 839 24.78 14.8 58.6 39 1.2 34.1
16:45 1010 29.83 839 24.78 15.2 59.3 37 0.8 33.5
16:50 1010 29.83 839 24.78 16.4 61.6 34 0.7 33.2
16:55 1010 29.83 839 24.78 16.7 62.1 34 0.9 33.6
17:00 1009 29.8 839 24.78 17.1 62.8 33 0.8 33.4
17:05 1009 29.8 839 24.78 17.3 63.1 33 1 33.8
17:10 1009 29.8 839 24.78 16.5 61.8 36 1.5 34.7
17:15 1009 29.8 839 24.78 15.6 60 38 1.3 34.3
17:20 1009 29.8 839 24.78 15.1 59.2 38 1 33.8
17:25 1009 29.8 838 24.75 15.3 59.5 38 1 33.8
17:30 1009 29.8 838 24.75 15.2 59.4 38 0.9 33.6
17:35 1009 29.8 838 24.75 15.5 60 36 0.5 32.9
17:40 1009 29.8 838 24.75 16.2 61.2 34 0.6 33
17:45 1009 29.8 838 24.75 16.7 62.1 33 0.5 32.9
17:50 1009 29.8 838 24.75 17.1 62.7 33 0.7 33.2
17:55 1009 29.8 838 24.75 17 62.7 33 1 33.7
18:00 1009 29.8 838 24.75 16.7 62 33 0.6 33.2
18:05 1009 29.8 838 24.75 16.6 61.9 34 0.9 33.6
18:10 1009 29.8 838 24.75 16.6 61.9 35 1.1 34
18:15 1009 29.8 838 24.75 16.1 60.9 37 1.4 34.5
18:20 1009 29.8 838 24.75 15.2 59.3 38 1.2 34.2
18:25 1009 29.8 838 24.75 14.7 58.4 39 0.8 33.5
18:30 1009 29.8 838 24.75 14.7 58.5 39 0.9 33.5
18:35 1009 29.8 838 24.75 14.8 58.6 38 0.6 33.1
18:40 1009 29.8 838 24.75 14.6 58.4 38 0.7 33.3
18:45 1009 29.8 838 24.75 14.7 58.5 39 0.8 33.5
18:50 1009 29.8 838 24.75 14.5 58.1 38 0.6 33
18:55 1009 29.8 838 24.75 14.4 57.9 39 0.6 33
19:00 1009 29.8 838 24.75 14.3 57.8 39 0.7 33.2
19:05 1009 29.8 838 24.75 14.4 57.9 39 0.8 33.4
19:10 1009 29.8 838 24.75 14.5 58.1 39 0.8 33.4
19:15 1009 29.8 838 24.75 14.5 58.1 40 1.1 34.1
19:20 1009 29.8 838 24.75 14.4 57.9 40 1.1 34
19:25 1009 29.8 838 24.75 14.3 57.7 41 1.2 34.1
19:30 1009 29.8 838 24.75 14.2 57.5 41 1.2 34.1
19:35 1009 29.8 838 24.75 14 57.2 42 1.2 34.2
19:40 1009 29.8 838 24.75 13.8 56.9 42 1.2 34.2
19:45 1009 29.8 838 24.75 13.7 56.6 43 1.3 34.3
19:50 1009 29.8 839 24.78 13.5 56.4 43 1.4 34.5
19:55 1009 29.8 839 24.78 13.4 56.2 44 1.5 34.8
20:00 1009 29.8 839 24.78 13.3 56 45 1.6 34.9
20:05 1009 29.8 839 24.78 13.3 56 45 1.6 34.9
20:10 1009 29.8 839 24.78 13.3 55.9 45 1.8 35.2
20:15 1009 29.8 839 24.78 12.9 55.2 48 2.2 35.9
20:20 1009 29.8 839 24.78 11.7 53.1 50 1.7 35.1
20:25 1009 29.8 839 24.78 11.8 53.2 48 1.3 34.4
20:30 1009 29.8 839 24.78 11.8 53.3 48 1.4 34.5
20:35 1009 29.8 839 24.78 11.5 52.7 50 1.4 34.6
20:40 1009 29.8 839 24.78 11.1 52 52 1.6 34.9
20:45 1010 29.83 839 24.78 10.8 51.4 52 1.5 34.7
20:50 1009 29.8 839 24.78 10.7 51.2 52 1.3 34.4
20:55 1009 29.8 839 24.78 10.6 51.1 52 1.2 34.1
21:00 1009 29.8 839 24.78 10.6 51.1 52 1.3 34.4
21:05 1010 29.83 839 24.78 10.4 50.8 54 1.6 34.9
21:10 1010 29.83 839 24.78 10.1 50.1 54 1.2 34.2
21:15 1010 29.83 839 24.78 10 50 55 1.4 34.5
21:20 1010 29.83 839 24.78 9.7 49.5 56 1.4 34.5
21:25 1009 29.8 839 24.78 9.6 49.3 55 1.1 34.1
21:30 1009 29.8 839 24.78 9.8 49.6 55 1.2 34.1
21:35 1009 29.8 838 24.75 9.8 49.7 54 1.1 34
21:40 1009 29.8 838 24.75 9.7 49.4 55 1.2 34.2
21:45 1009 29.8 838 24.75 9.3 48.7 56 1.1 33.9
21:50 1009 29.8 838 24.75 9.2 48.6 56 1 33.8
21:55 1009 29.8 839 24.78 8.9 48.1 58 1.2 34.1
22:00 1009 29.8 839 24.78 8.3 46.9 59 0.9 33.6
22:05 1009 29.8 839 24.78 8.6 47.5 58 0.8 33.5
22:10 1009 29.8 838 24.75 9.1 48.3 57 1 33.8
22:15 1009 29.8 838 24.75 9.2 48.6 57 1.2 34.2
22:20 1009 29.8 838 24.75 8.9 47.9 59 1.2 34.2
22:25 1009 29.8 838 24.75 8.7 47.6 59 1.2 34.2
22:30 1009 29.8 839 24.78 8.5 47.3 60 1.1 34
22:35 1009 29.8 839 24.78 8.7 47.6 58 1 33.7
22:40 1009 29.8 839 24.78 8.9 48 57 1 33.8
22:45 1009 29.8 839 24.78 9 48.1 58 1.1 33.9
22:50 1009 29.8 839 24.78 8.9 48.1 58 1.2 34.2
22:55 1009 29.8 839 24.78 9.1 48.3 57 1 33.7
23:00 1009 29.8 839 24.78 9.4 48.9 56 1 33.9
23:05 1010 29.83 839 24.78 9.6 49.4 54 0.9 33.7
23:10 1010 29.83 839 24.78 9.8 49.7 56 1.5 34.7
23:15 1010 29.83 839 24.78 9.7 49.4 60 2.3 36.1
23:20 1010 29.83 839 24.78 9.3 48.8 63 2.7 36.8
23:25 1010 29.83 839 24.78 9.3 48.8 62 2.5 36.4
23:30 1010 29.83 839 24.78 9.4 48.8 61 2.3 36.1
23:35 1010 29.83 839 24.78 9.4 48.8 62 2.4 36.4
23:40 1010 29.83 839 24.78 9.3 48.7 61 2.2 35.9
23:45 1010 29.83 839 24.78 9.4 49 61 2.2 36
23:50 1010 29.83 839 24.78 9.4 49 63 2.7 36.8
23:55 1009 29.8 839 24.78 9.3 48.7 63 2.6 36.6
24:00 1009 29.8 839 24.78 9.1 48.4 66 3.1 37.6